Time;durP1;ratioP1;P1;durP2;ratioP2;P2;SDS_P1;SDS_P2;PMS_P1;PMS_P2;Temp;Humidity;BMP_temperature;BMP_pressure;BME280_temperature;BME280_humidity;BME280_pressure;Samples;Min_cycle;Max_cycle;Signal;HPM_P1;HPM_P2
2021/04/03 00:00:06;;;;;;;12.10;6.60;;;;;;;;;;5076538;28;20264;-64
2021/04/03 00:02:32;;;;;;;9.43;6.30;;;;;;;;;;5082204;28;20200;-64
2021/04/03 00:04:58;;;;;;;11.93;7.27;;;;;;;;;;5078224;28;20289;-64
2021/04/03 00:07:24;;;;;;;10.73;7.33;;;;;;;;;;5076506;28;20302;-64
2021/04/03 00:09:50;;;;;;;14.57;6.87;;;;;;;;;;5077646;28;20634;-63
2021/04/03 00:12:16;;;;;;;12.57;7.10;;;;;;;;;;5076233;28;20179;-63
2021/04/03 00:14:42;;;;;;;10.87;7.13;;;;;;;;;;5081964;28;20211;-64
2021/04/03 00:17:08;;;;;;;11.77;6.97;;;;;;;;;;5080020;28;20235;-64
2021/04/03 00:19:34;;;;;;;10.47;6.97;;;;;;;;;;5082796;28;20181;-64
2021/04/03 00:22:00;;;;;;;11.20;6.87;;;;;;;;;;5082640;28;20181;-64
2021/04/03 00:24:26;;;;;;;10.00;7.63;;;;;;;;;;5079422;28;20201;-64
2021/04/03 00:26:52;;;;;;;11.30;7.00;;;;;;;;;;5083834;28;20232;-64
2021/04/03 00:29:18;;;;;;;11.00;7.40;;;;;;;;;;5080837;28;20203;-65
2021/04/03 00:31:44;;;;;;;7.90;7.00;;;;;;;;;;5083783;28;20221;-65
2021/04/03 00:34:10;;;;;;;8.60;6.73;;;;;;;;;;5081854;28;20256;-64
2021/04/03 00:36:36;;;;;;;10.63;7.20;;;;;;;;;;5085845;28;20703;-64
2021/04/03 00:39:02;;;;;;;7.70;6.83;;;;;;;;;;5074820;28;20514;-65
2021/04/03 00:41:28;;;;;;;14.57;7.67;;;;;;;;;;5078937;28;20189;-65
2021/04/03 00:43:54;;;;;;;9.57;7.67;;;;;;;;;;5084582;28;20182;-63
2021/04/03 00:46:20;;;;;;;11.77;6.87;;;;;;;;;;5074393;28;20179;-65
2021/04/03 00:48:46;;;;;;;11.50;7.23;;;;;;;;;;5079264;28;20222;-65
2021/04/03 00:51:13;;;;;;;12.43;7.53;;;;;;;;;;5079836;28;20269;-65
2021/04/03 00:53:39;;;;;;;11.57;7.77;;;;;;;;;;5078692;28;20224;-65
2021/04/03 00:56:05;;;;;;;10.93;7.07;;;;;;;;;;5081278;28;20215;-63
2021/04/03 00:58:31;;;;;;;12.40;7.67;;;;;;;;;;5073654;28;20188;-65
2021/04/03 01:00:57;;;;;;;10.50;7.43;;;;;;;;;;5067160;28;20207;-64
2021/04/03 01:03:24;;;;;;;13.27;8.10;;;;;;;;;;5085116;28;20219;-65
2021/04/03 01:05:50;;;;;;;13.80;8.53;;;;;;;;;;5074264;28;20265;-64
2021/04/03 01:08:16;;;;;;;11.47;8.87;;;;;;;;;;5088023;28;20189;-64
2021/04/03 01:10:44;;;;;;;11.77;8.33;;;;;;;;;;5084978;28;20276;-64
2021/04/03 01:13:29;;;;;;;8.80;7.90;;;;;;;;;;5077515;28;20192;-65
2021/04/03 01:16:04;;;;;;;11.90;7.57;;;;;;;;;;5070669;28;20240;-65
2021/04/03 01:18:53;;;;;;;13.53;7.97;;;;;;;;;;5077673;28;20198;-65
2021/04/03 01:21:38;;;;;;;12.57;7.47;;;;;;;;;;5080301;28;20575;-63
2021/04/03 01:24:10;;;;;;;10.53;7.83;;;;;;;;;;5073667;28;20175;-65
2021/04/03 01:26:36;;;;;;;12.17;7.50;;;;;;;;;;5081530;28;20225;-66
2021/04/03 01:29:20;;;;;;;11.33;8.23;;;;;;;;;;5080886;28;20309;-65
2021/04/03 01:31:47;;;;;;;16.07;8.47;;;;;;;;;;5073456;28;20273;-65
2021/04/03 01:34:17;;;;;;;10.83;7.73;;;;;;;;;;5076342;28;20712;-65
2021/04/03 01:36:43;;;;;;;11.47;7.30;;;;;;;;;;5076544;28;20206;-64
2021/04/03 01:39:13;;;;;;;9.30;8.27;;;;;;;;;;5078740;28;20189;-64
2021/04/03 01:41:39;;;;;;;16.47;7.57;;;;;;;;;;5073039;28;20194;-64
2021/04/03 01:44:07;;;;;;;11.10;7.50;;;;;;;;;;5076196;28;20186;-64
2021/04/03 01:46:35;;;;;;;11.57;7.17;;;;;;;;;;5074639;28;20741;-64
2021/04/03 01:49:04;;;;;;;9.23;7.60;;;;;;;;;;5082922;28;20189;-63
2021/04/03 01:51:31;;;;;;;8.93;7.73;;;;;;;;;;5084275;28;20215;-64
2021/04/03 01:53:57;;;;;;;11.23;7.70;;;;;;;;;;5076616;28;20198;-64
2021/04/03 01:56:25;;;;;;;12.60;7.80;;;;;;;;;;5086765;28;20232;-64
2021/04/03 01:58:52;;;;;;;12.10;8.20;;;;;;;;;;5079526;28;20190;-64
2021/04/03 02:01:19;;;;;;;10.93;8.20;;;;;;;;;;5073617;28;20195;-63
2021/04/03 02:03:45;;;;;;;9.80;7.50;;;;;;;;;;5075546;28;20210;-65
2021/04/03 02:06:14;;;;;;;12.93;7.90;;;;;;;;;;5073145;28;20209;-64
2021/04/03 02:08:41;;;;;;;8.20;7.23;;;;;;;;;;5078908;28;20187;-64
2021/04/03 02:11:08;;;;;;;9.93;7.20;;;;;;;;;;5073521;28;20950;-64
2021/04/03 02:13:35;;;;;;;12.00;7.90;;;;;;;;;;5079794;28;20193;-63
2021/04/03 02:16:01;;;;;;;11.07;7.33;;;;;;;;;;5079082;28;20217;-64
2021/04/03 02:18:32;;;;;;;11.13;7.67;;;;;;;;;;5072725;28;20190;-65
2021/04/03 02:21:04;;;;;;;11.07;7.03;;;;;;;;;;5078562;28;20227;-65
2021/04/03 02:23:32;;;;;;;18.00;7.50;;;;;;;;;;5083123;28;20189;-64
2021/04/03 02:25:58;;;;;;;10.00;7.57;;;;;;;;;;5081963;28;20298;-65
2021/04/03 02:28:25;;;;;;;8.50;7.60;;;;;;;;;;5080000;28;20184;-66
2021/04/03 02:30:51;;;;;;;9.87;6.27;;;;;;;;;;5079646;28;20290;-63
2021/04/03 02:33:17;;;;;;;14.87;8.07;;;;;;;;;;5075244;28;20211;-65
2021/04/03 02:35:43;;;;;;;9.63;6.77;;;;;;;;;;5078829;28;20244;-64
2021/04/03 02:38:09;;;;;;;10.73;7.27;;;;;;;;;;5081433;28;20226;-64
2021/04/03 02:40:36;;;;;;;11.97;7.00;;;;;;;;;;5091205;28;20186;-65
2021/04/03 02:43:20;;;;;;;11.90;6.77;;;;;;;;;;5081031;28;20230;-64
2021/04/03 02:45:48;;;;;;;7.40;6.10;;;;;;;;;;5076216;28;20632;-64
2021/04/03 02:48:17;;;;;;;7.87;6.40;;;;;;;;;;5079103;28;20743;-64
2021/04/03 02:50:44;;;;;;;6.57;5.87;;;;;;;;;;5084000;28;20198;-64
2021/04/03 02:53:14;;;;;;;10.97;6.20;;;;;;;;;;5079022;28;20189;-64
2021/04/03 02:55:44;;;;;;;7.43;6.23;;;;;;;;;;5079566;28;20215;-65
2021/04/03 02:58:11;;;;;;;10.63;6.73;;;;;;;;;;5080037;28;20189;-64
2021/04/03 03:00:37;;;;;;;9.50;6.20;;;;;;;;;;5080838;28;20180;-64
2021/04/03 03:03:04;;;;;;;11.27;7.93;;;;;;;;;;5084623;28;20616;-65
2021/04/03 03:05:31;;;;;;;11.23;6.90;;;;;;;;;;5082420;28;20206;-64
2021/04/03 03:07:58;;;;;;;10.33;6.67;;;;;;;;;;5084507;28;20199;-63
2021/04/03 03:10:24;;;;;;;8.10;6.73;;;;;;;;;;5079803;28;20194;-64
2021/04/03 03:12:51;;;;;;;13.70;6.50;;;;;;;;;;5080251;28;20246;-64
2021/04/03 03:15:18;;;;;;;7.43;6.43;;;;;;;;;;5073435;28;20287;-65
2021/04/03 03:17:45;;;;;;;9.80;6.10;;;;;;;;;;5078265;28;20248;-66
2021/04/03 03:20:15;;;;;;;16.37;7.13;;;;;;;;;;5078970;28;20232;-65
2021/04/03 03:22:41;;;;;;;10.23;7.53;;;;;;;;;;5083675;28;20180;-65
2021/04/03 03:25:08;;;;;;;8.90;6.90;;;;;;;;;;5073017;28;20236;-64
2021/04/03 03:27:39;;;;;;;8.17;6.50;;;;;;;;;;5081719;28;20203;-65
2021/04/03 03:30:06;;;;;;;14.57;6.80;;;;;;;;;;5077138;28;20259;-64
2021/04/03 03:32:32;;;;;;;10.60;7.13;;;;;;;;;;5084365;28;20668;-64
2021/04/03 03:34:58;;;;;;;9.67;6.60;;;;;;;;;;5087751;28;20196;-65
2021/04/03 03:37:25;;;;;;;10.00;7.20;;;;;;;;;;5075100;28;20674;-64
2021/04/03 03:39:52;;;;;;;11.40;7.13;;;;;;;;;;5084092;28;20184;-64
2021/04/03 03:42:18;;;;;;;8.57;6.37;;;;;;;;;;5080455;28;20211;-64
2021/04/03 03:44:44;;;;;;;11.30;6.77;;;;;;;;;;5076473;28;20207;-64
2021/04/03 03:47:10;;;;;;;16.33;7.20;;;;;;;;;;5082170;28;20687;-64
2021/04/03 03:49:36;;;;;;;7.27;6.30;;;;;;;;;;5082396;28;20197;-64
2021/04/03 03:52:03;;;;;;;9.33;6.47;;;;;;;;;;5084760;28;20651;-64
2021/04/03 03:54:29;;;;;;;8.27;6.87;;;;;;;;;;5081260;28;20287;-64
2021/04/03 03:56:55;;;;;;;9.17;6.07;;;;;;;;;;5076692;28;20296;-64
2021/04/03 03:59:21;;;;;;;10.53;6.63;;;;;;;;;;5081791;28;20178;-64
2021/04/03 04:01:47;;;;;;;9.20;6.00;;;;;;;;;;5083286;28;20188;-64
2021/04/03 04:04:13;;;;;;;8.50;5.80;;;;;;;;;;5085366;28;20263;-64
2021/04/03 04:06:39;;;;;;;8.73;5.87;;;;;;;;;;5083277;28;20191;-64
2021/04/03 04:09:06;;;;;;;7.90;5.53;;;;;;;;;;5082778;28;20250;-65
2021/04/03 04:11:33;;;;;;;8.07;5.87;;;;;;;;;;5085964;28;20674;-64
2021/04/03 04:13:59;;;;;;;6.70;5.00;;;;;;;;;;5078876;28;20276;-64
2021/04/03 04:16:25;;;;;;;6.10;4.87;;;;;;;;;;5074223;28;20340;-65
2021/04/03 04:18:51;;;;;;;11.00;5.17;;;;;;;;;;5083717;28;20227;-65
2021/04/03 04:21:17;;;;;;;9.53;5.50;;;;;;;;;;5083432;28;20270;-63
2021/04/03 04:23:44;;;;;;;15.07;5.70;;;;;;;;;;5074567;28;20189;-65
2021/04/03 04:26:10;;;;;;;9.40;5.83;;;;;;;;;;5079537;28;20593;-64
2021/04/03 04:28:36;;;;;;;10.10;5.23;;;;;;;;;;5087505;28;20651;-64
2021/04/03 04:31:03;;;;;;;10.80;5.37;;;;;;;;;;5079367;28;20191;-64
2021/04/03 04:33:29;;;;;;;8.30;5.60;;;;;;;;;;5075642;28;20242;-64
2021/04/03 04:35:55;;;;;;;7.10;5.43;;;;;;;;;;5079172;28;20216;-65
2021/04/03 04:38:21;;;;;;;7.10;5.50;;;;;;;;;;5088921;28;20216;-65
2021/04/03 04:40:47;;;;;;;9.50;5.17;;;;;;;;;;5073691;28;20219;-65
2021/04/03 04:43:13;;;;;;;5.60;4.90;;;;;;;;;;5077129;28;20289;-64
2021/04/03 04:45:39;;;;;;;8.00;4.93;;;;;;;;;;5070772;28;20616;-65
2021/04/03 04:48:05;;;;;;;8.80;5.93;;;;;;;;;;5081842;28;20222;-63
2021/04/03 04:50:31;;;;;;;12.87;5.37;;;;;;;;;;5075198;28;20188;-64
2021/04/03 04:52:57;;;;;;;6.87;4.93;;;;;;;;;;5078022;28;20201;-64
2021/04/03 04:55:23;;;;;;;8.30;5.73;;;;;;;;;;5081570;28;20220;-64
2021/04/03 04:57:49;;;;;;;9.20;5.40;;;;;;;;;;5082509;28;20676;-64
2021/04/03 05:00:15;;;;;;;8.07;5.03;;;;;;;;;;5085567;28;20562;-64
2021/04/03 05:02:42;;;;;;;9.83;5.30;;;;;;;;;;5085357;28;20221;-64
2021/04/03 05:05:09;;;;;;;7.73;5.30;;;;;;;;;;5081477;28;20207;-65
2021/04/03 05:07:34;;;;;;;10.70;5.70;;;;;;;;;;5076772;28;20179;-65
2021/04/03 05:10:00;;;;;;;7.63;5.13;;;;;;;;;;5076934;28;20203;-64
2021/04/03 05:12:26;;;;;;;8.37;5.30;;;;;;;;;;5082077;28;20191;-65
2021/04/03 05:14:52;;;;;;;8.70;4.97;;;;;;;;;;5071590;28;20298;-64
2021/04/03 05:17:21;;;;;;;8.10;5.77;;;;;;;;;;5077075;28;20210;-64
2021/04/03 05:19:47;;;;;;;9.63;5.80;;;;;;;;;;5085683;28;20184;-63
2021/04/03 05:22:13;;;;;;;7.30;5.20;;;;;;;;;;5072868;28;20264;-63
2021/04/03 05:24:39;;;;;;;12.37;5.70;;;;;;;;;;5074394;28;20696;-64
2021/04/03 05:27:05;;;;;;;8.67;5.87;;;;;;;;;;5074489;28;20204;-63
2021/04/03 05:29:31;;;;;;;8.33;5.57;;;;;;;;;;5079085;28;20571;-64
2021/04/03 05:31:57;;;;;;;8.53;5.60;;;;;;;;;;5082572;28;20179;-65
2021/04/03 05:34:23;;;;;;;7.60;5.43;;;;;;;;;;5083016;28;20303;-64
2021/04/03 05:36:49;;;;;;;10.93;5.53;;;;;;;;;;5081756;28;20212;-66
2021/04/03 05:39:15;;;;;;;10.37;4.87;;;;;;;;;;5079347;28;20185;-65
2021/04/03 05:41:41;;;;;;;7.77;5.07;;;;;;;;;;5082859;28;20633;-64
2021/04/03 05:44:09;;;;;;;9.10;5.07;;;;;;;;;;5081943;28;20241;-64
2021/04/03 05:46:37;;;;;;;7.97;5.37;;;;;;;;;;5077010;28;20218;-63
2021/04/03 05:49:04;;;;;;;9.63;5.10;;;;;;;;;;5080817;28;20179;-66
2021/04/03 05:51:30;;;;;;;9.57;5.27;;;;;;;;;;5071276;28;20193;-64
2021/04/03 05:53:57;;;;;;;8.77;5.17;;;;;;;;;;5075349;28;20185;-65
2021/04/03 05:56:23;;;;;;;10.33;5.40;;;;;;;;;;5076239;28;20223;-64
2021/04/03 05:58:49;;;;;;;8.77;5.33;;;;;;;;;;5078502;28;20194;-62
2021/04/03 06:01:15;;;;;;;9.27;5.20;;;;;;;;;;5077920;28;20177;-62
2021/04/03 06:03:41;;;;;;;7.47;4.83;;;;;;;;;;5072389;28;20606;-63
2021/04/03 06:06:07;;;;;;;8.43;5.43;;;;;;;;;;5077212;28;20202;-62
2021/04/03 06:08:34;;;;;;;8.90;5.00;;;;;;;;;;5074803;28;20204;-62
2021/04/03 06:11:12;;;;;;;11.07;5.10;;;;;;;;;;5080492;28;20191;-63
2021/04/03 06:13:39;;;;;;;11.70;5.30;;;;;;;;;;5074313;28;20188;-63
2021/04/03 06:16:23;;;;;;;8.40;5.47;;;;;;;;;;5079457;28;20217;-63
2021/04/03 06:18:49;;;;;;;5.93;4.73;;;;;;;;;;5076142;28;20189;-63
2021/04/03 06:21:15;;;;;;;8.07;5.70;;;;;;;;;;5082892;28;20285;-65
2021/04/03 06:23:41;;;;;;;9.07;4.70;;;;;;;;;;5078542;28;20872;-63
2021/04/03 06:26:07;;;;;;;8.70;4.50;;;;;;;;;;5077278;28;20220;-65
2021/04/03 06:28:33;;;;;;;8.30;4.53;;;;;;;;;;5080369;28;20254;-64
2021/04/03 06:31:12;;;;;;;8.03;4.50;;;;;;;;;;5077978;28;20239;-64
2021/04/03 06:33:38;;;;;;;7.47;4.10;;;;;;;;;;5082243;28;20188;-63
2021/04/03 06:36:06;;;;;;;14.10;5.07;;;;;;;;;;5076226;28;20226;-63
2021/04/03 06:38:33;;;;;;;10.47;4.47;;;;;;;;;;5083395;28;20273;-65
2021/04/03 06:41:17;;;;;;;8.80;3.93;;;;;;;;;;5077062;28;20182;-66
2021/04/03 06:43:43;;;;;;;8.70;4.50;;;;;;;;;;5077388;28;20206;-64
2021/04/03 06:46:25;;;;;;;7.90;4.07;;;;;;;;;;5080616;28;20207;-65
2021/04/03 06:48:56;;;;;;;6.23;4.03;;;;;;;;;;5075640;28;20189;-63
2021/04/03 06:51:23;;;;;;;7.50;4.47;;;;;;;;;;5079942;28;20195;-64
2021/04/03 06:53:49;;;;;;;6.23;4.10;;;;;;;;;;5076195;28;20749;-63
2021/04/03 06:56:17;;;;;;;6.83;4.10;;;;;;;;;;5081435;28;20256;-64
2021/04/03 06:58:45;;;;;;;8.80;4.10;;;;;;;;;;5080707;28;20232;-65
2021/04/03 07:01:12;;;;;;;10.23;4.43;;;;;;;;;;5076917;28;20179;-64
2021/04/03 07:03:39;;;;;;;6.53;3.47;;;;;;;;;;5079541;28;20209;-64
2021/04/03 07:06:06;;;;;;;9.53;4.40;;;;;;;;;;5080414;28;20206;-64
2021/04/03 07:08:32;;;;;;;7.13;3.63;;;;;;;;;;5079028;28;20664;-65
2021/04/03 07:10:59;;;;;;;5.80;3.72;;;;;;;;;;5085040;28;20722;-66
2021/04/03 07:13:26;;;;;;;4.43;3.28;;;;;;;;;;5083116;28;20179;-67
2021/04/03 07:15:52;;;;;;;5.43;3.50;;;;;;;;;;5080821;28;20226;-65
2021/04/03 07:18:19;;;;;;;5.60;3.65;;;;;;;;;;5084491;28;20648;-64
2021/04/03 07:20:45;;;;;;;6.28;3.33;;;;;;;;;;5075292;28;20214;-65
2021/04/03 07:23:12;;;;;;;5.78;3.13;;;;;;;;;;5078591;28;20182;-67
2021/04/03 07:25:39;;;;;;;6.22;2.95;;;;;;;;;;5076979;28;20218;-66
2021/04/03 07:28:06;;;;;;;4.28;3.13;;;;;;;;;;5077263;28;20220;-65
2021/04/03 07:30:38;;;;;;;7.68;3.67;;;;;;;;;;5074433;28;20187;-66
2021/04/03 07:33:14;;;;;;;9.98;3.78;;;;;;;;;;5074299;28;20178;-67
2021/04/03 07:35:40;;;;;;;8.65;3.42;;;;;;;;;;5074560;28;20311;-65
2021/04/03 07:38:07;;;;;;;7.82;3.40;;;;;;;;;;5082728;28;20202;-66
2021/04/03 07:40:33;;;;;;;7.75;3.20;;;;;;;;;;5085595;28;20273;-65
2021/04/03 07:43:00;;;;;;;7.53;3.67;;;;;;;;;;5077958;28;20614;-66
2021/04/03 07:45:32;;;;;;;6.60;3.28;;;;;;;;;;5084657;28;20202;-67
2021/04/03 07:47:59;;;;;;;6.13;3.15;;;;;;;;;;5081409;28;20587;-64
2021/04/03 07:50:40;;;;;;;5.90;3.53;;;;;;;;;;5080540;28;20229;-67
2021/04/03 07:53:07;;;;;;;6.82;3.75;;;;;;;;;;5074973;28;20187;-64
2021/04/03 07:55:36;;;;;;;5.03;3.33;;;;;;;;;;5082013;28;20233;-66
2021/04/03 07:58:20;;;;;;;6.90;3.40;;;;;;;;;;5078645;28;20171;-67
2021/04/03 08:00:46;;;;;;;4.35;3.05;;;;;;;;;;5077664;28;20210;-66
2021/04/03 08:03:13;;;;;;;6.07;3.33;;;;;;;;;;5073638;28;20187;-66
2021/04/03 08:05:39;;;;;;;3.75;3.20;;;;;;;;;;5080875;28;20292;-65
2021/04/03 08:08:09;;;;;;;6.72;4.10;;;;;;;;;;5082945;28;20178;-66
2021/04/03 08:10:35;;;;;;;4.90;3.22;;;;;;;;;;5084153;28;20182;-65
2021/04/03 08:13:02;;;;;;;5.97;3.67;;;;;;;;;;5083461;28;20190;-66
2021/04/03 08:15:28;;;;;;;7.13;3.55;;;;;;;;;;5076960;28;20213;-66
2021/04/03 08:17:54;;;;;;;5.60;3.53;;;;;;;;;;5072046;28;20554;-66
2021/04/03 08:20:21;;;;;;;6.70;3.80;;;;;;;;;;5085794;28;20261;-66
2021/04/03 08:23:06;;;;;;;6.15;3.90;;;;;;;;;;5077295;28;20186;-65
2021/04/03 08:25:33;;;;;;;6.60;3.88;;;;;;;;;;5083604;28;20218;-67
2021/04/03 08:28:02;;;;;;;6.25;3.60;;;;;;;;;;5082609;28;20205;-66
2021/04/03 08:30:29;;;;;;;8.18;4.00;;;;;;;;;;5097817;28;20189;-65
2021/04/03 08:33:04;;;;;;;7.05;3.78;;;;;;;;;;5083831;28;20187;-65
2021/04/03 08:35:30;;;;;;;12.18;3.95;;;;;;;;;;5085504;28;20749;-64
2021/04/03 08:38:06;;;;;;;5.22;3.08;;;;;;;;;;5078596;28;20733;-65
2021/04/03 08:40:46;;;;;;;4.78;2.97;;;;;;;;;;5087700;28;20181;-64
2021/04/03 08:43:16;;;;;;;6.82;2.78;;;;;;;;;;5102003;28;20185;-65
2021/04/03 08:45:42;;;;;;;4.28;2.47;;;;;;;;;;5080688;28;20760;-65
2021/04/03 08:48:09;;;;;;;5.90;3.08;;;;;;;;;;5084025;28;20182;-64
2021/04/03 08:50:35;;;;;;;7.88;3.15;;;;;;;;;;5081682;28;20183;-67
2021/04/03 08:53:02;;;;;;;5.78;3.03;;;;;;;;;;5075580;28;20206;-65
2021/04/03 08:55:28;;;;;;;8.45;3.03;;;;;;;;;;5077750;28;20583;-65
2021/04/03 08:57:56;;;;;;;7.22;3.00;;;;;;;;;;5076695;28;20179;-68
2021/04/03 09:00:22;;;;;;;4.97;2.88;;;;;;;;;;5073064;28;20526;-66
2021/04/03 09:02:49;;;;;;;6.10;3.55;;;;;;;;;;5074922;28;20175;-66
2021/04/03 09:05:16;;;;;;;5.40;3.75;;;;;;;;;;5084069;28;20210;-66
2021/04/03 09:07:42;;;;;;;7.50;3.97;;;;;;;;;;5079584;28;20185;-66
2021/04/03 09:10:09;;;;;;;6.85;3.45;;;;;;;;;;5082547;28;20190;-65
2021/04/03 09:12:35;;;;;;;5.20;3.10;;;;;;;;;;5078144;28;20189;-65
2021/04/03 09:15:02;;;;;;;6.45;3.33;;;;;;;;;;5080453;28;20639;-64
2021/04/03 09:17:28;;;;;;;3.20;2.90;;;;;;;;;;5077052;28;20916;-66
2021/04/03 09:20:14;;;;;;;4.70;3.08;;;;;;;;;;5084244;28;20185;-66
2021/04/03 09:22:44;;;;;;;3.95;2.65;;;;;;;;;;5076158;28;20558;-66
2021/04/03 09:25:11;;;;;;;2.95;2.42;;;;;;;;;;5076977;28;20210;-66
2021/04/03 09:27:37;;;;;;;4.05;2.58;;;;;;;;;;5074755;28;20167;-67
2021/04/03 09:30:09;;;;;;;13.90;3.40;;;;;;;;;;5079476;28;20224;-65
2021/04/03 09:32:42;;;;;;;4.57;2.95;;;;;;;;;;5076297;28;20691;-66
2021/04/03 09:35:09;;;;;;;3.47;2.42;;;;;;;;;;5077288;28;20229;-64
2021/04/03 09:37:35;;;;;;;6.13;3.00;;;;;;;;;;5086627;28;20644;-64
2021/04/03 09:40:01;;;;;;;3.58;2.58;;;;;;;;;;5083186;28;20201;-65
2021/04/03 09:42:28;;;;;;;6.97;2.63;;;;;;;;;;5082911;28;20238;-65
2021/04/03 09:44:56;;;;;;;5.53;2.58;;;;;;;;;;5087306;28;20663;-64
2021/04/03 09:47:22;;;;;;;3.47;2.67;;;;;;;;;;5082232;28;20179;-68
2021/04/03 09:49:49;;;;;;;4.78;2.72;;;;;;;;;;5079778;28;20214;-66
2021/04/03 09:52:15;;;;;;;7.43;2.90;;;;;;;;;;5082212;28;20186;-66
2021/04/03 09:54:42;;;;;;;4.78;2.55;;;;;;;;;;5082037;28;20213;-66
2021/04/03 09:57:08;;;;;;;4.80;2.60;;;;;;;;;;5083493;28;20211;-66
2021/04/03 09:59:34;;;;;;;4.75;2.42;;;;;;;;;;5077871;28;20187;-66
2021/04/03 10:02:01;;;;;;;3.28;1.90;;;;;;;;;;5075469;28;20170;-64
2021/04/03 10:04:27;;;;;;;4.60;2.28;;;;;;;;;;5085950;28;20256;-66
2021/04/03 10:06:54;;;;;;;3.13;1.88;;;;;;;;;;5086072;28;20186;-65
2021/04/03 10:09:20;;;;;;;5.15;2.10;;;;;;;;;;5081198;28;20191;-65
2021/04/03 10:11:46;;;;;;;4.88;2.22;;;;;;;;;;5087834;28;20182;-64
2021/04/03 10:14:12;;;;;;;2.83;2.10;;;;;;;;;;5086290;28;20190;-65
2021/04/03 10:16:38;;;;;;;5.40;2.50;;;;;;;;;;5085367;28;20198;-64
2021/04/03 10:19:05;;;;;;;6.05;2.42;;;;;;;;;;5079693;28;20186;-64
2021/04/03 10:21:31;;;;;;;4.10;2.28;;;;;;;;;;5078995;28;20194;-65
2021/04/03 10:23:57;;;;;;;4.38;1.88;;;;;;;;;;5083301;28;20193;-65
2021/04/03 10:26:23;;;;;;;2.97;1.90;;;;;;;;;;5073298;28;20721;-65
2021/04/03 10:28:49;;;;;;;4.78;2.20;;;;;;;;;;5077765;28;20270;-65
2021/04/03 10:31:15;;;;;;;4.43;2.22;;;;;;;;;;5084053;28;20569;-65
2021/04/03 10:33:42;;;;;;;3.10;2.20;;;;;;;;;;5083703;28;20661;-66
2021/04/03 10:36:08;;;;;;;3.88;2.13;;;;;;;;;;5075836;28;20239;-66
2021/04/03 10:38:35;;;;;;;4.47;2.13;;;;;;;;;;5072233;28;20214;-66
2021/04/03 10:41:01;;;;;;;2.25;2.05;;;;;;;;;;5084197;28;20186;-65
2021/04/03 10:43:27;;;;;;;6.82;2.50;;;;;;;;;;5076229;28;20219;-66
2021/04/03 10:45:53;;;;;;;6.63;2.58;;;;;;;;;;5084339;28;20211;-67
2021/04/03 10:48:20;;;;;;;3.47;2.42;;;;;;;;;;5082246;28;20269;-66
2021/04/03 10:50:46;;;;;;;4.07;2.20;;;;;;;;;;5079513;28;20178;-65
2021/04/03 10:53:13;;;;;;;6.30;2.47;;;;;;;;;;5083405;28;20605;-65
2021/04/03 10:55:39;;;;;;;5.72;2.42;;;;;;;;;;5077788;28;20828;-66
2021/04/03 10:58:05;;;;;;;6.40;2.60;;;;;;;;;;5079311;28;20183;-67
2021/04/03 11:00:32;;;;;;;3.63;2.30;;;;;;;;;;5080044;28;20561;-66
2021/04/03 11:02:58;;;;;;;3.65;2.38;;;;;;;;;;5083031;28;20726;-67
2021/04/03 11:05:24;;;;;;;3.58;2.13;;;;;;;;;;5078035;28;20241;-67
2021/04/03 11:07:50;;;;;;;4.03;2.47;;;;;;;;;;5083383;28;20175;-66
2021/04/03 11:10:16;;;;;;;6.20;2.92;;;;;;;;;;5079428;28;20179;-67
2021/04/03 11:12:42;;;;;;;4.22;2.60;;;;;;;;;;5076509;28;20178;-67
2021/04/03 11:15:09;;;;;;;11.73;3.10;;;;;;;;;;5079986;28;20276;-67
2021/04/03 11:17:35;;;;;;;4.00;2.70;;;;;;;;;;5077142;28;20207;-66
2021/04/03 11:20:03;;;;;;;5.80;2.47;;;;;;;;;;5073938;28;20177;-66
2021/04/03 11:22:29;;;;;;;5.05;3.20;;;;;;;;;;5081888;28;20235;-64
2021/04/03 11:24:55;;;;;;;4.05;2.95;;;;;;;;;;5083030;28;20293;-65
2021/04/03 11:27:21;;;;;;;6.95;3.25;;;;;;;;;;5085131;28;20183;-65
2021/04/03 11:29:47;;;;;;;4.80;2.80;;;;;;;;;;5085860;28;20196;-64
2021/04/03 11:32:13;;;;;;;6.90;2.95;;;;;;;;;;5088624;28;20653;-65
2021/04/03 11:34:39;;;;;;;4.93;2.65;;;;;;;;;;5088429;28;20603;-64
2021/04/03 11:37:06;;;;;;;7.50;2.70;;;;;;;;;;5087496;28;20206;-65
2021/04/03 11:39:32;;;;;;;4.38;2.20;;;;;;;;;;5087623;28;20212;-65
2021/04/03 11:41:58;;;;;;;5.30;2.05;;;;;;;;;;5088963;28;20725;-65
2021/04/03 11:44:25;;;;;;;6.15;2.88;;;;;;;;;;5086971;28;20197;-65
2021/04/03 11:46:51;;;;;;;4.68;2.70;;;;;;;;;;5087789;28;20180;-65
2021/04/03 11:49:17;;;;;;;3.50;2.70;;;;;;;;;;5087665;28;20174;-66
2021/04/03 11:51:43;;;;;;;3.67;2.70;;;;;;;;;;5086102;28;20558;-64
2021/04/03 11:54:10;;;;;;;3.47;2.85;;;;;;;;;;5088370;28;20179;-65
2021/04/03 11:56:36;;;;;;;2.90;2.38;;;;;;;;;;5085040;28;20232;-65
2021/04/03 11:59:02;;;;;;;5.07;2.65;;;;;;;;;;5085654;28;20680;-64
2021/04/03 12:01:28;;;;;;;3.67;2.80;;;;;;;;;;5078215;28;20270;-65
2021/04/03 12:03:54;;;;;;;4.22;2.80;;;;;;;;;;5079945;28;20266;-65
2021/04/03 12:06:20;;;;;;;7.18;3.53;;;;;;;;;;5077741;28;20202;-66
2021/04/03 12:08:46;;;;;;;8.10;3.20;;;;;;;;;;5074946;28;20294;-65
2021/04/03 12:11:12;;;;;;;5.60;2.90;;;;;;;;;;5075287;28;20274;-66
2021/04/03 12:13:38;;;;;;;3.35;2.92;;;;;;;;;;5077428;28;20179;-65
2021/04/03 12:16:04;;;;;;;5.45;2.50;;;;;;;;;;5073894;28;20714;-67
2021/04/03 12:18:31;;;;;;;6.07;3.22;;;;;;;;;;5074564;28;20220;-64
2021/04/03 12:20:57;;;;;;;6.78;3.88;;;;;;;;;;5075655;28;21528;-63
2021/04/03 12:23:23;;;;;;;6.97;3.40;;;;;;;;;;5083479;28;20186;-68
2021/04/03 12:25:49;;;;;;;5.03;3.03;;;;;;;;;;5091408;28;20873;-65
2021/04/03 12:28:15;;;;;;;10.57;3.33;;;;;;;;;;5090997;28;20181;-65
2021/04/03 12:30:41;;;;;;;6.43;3.80;;;;;;;;;;5102610;28;20232;-66
2021/04/03 12:33:07;;;;;;;8.70;3.55;;;;;;;;;;5103434;28;20600;-67
2021/04/03 12:35:33;;;;;;;9.60;3.38;;;;;;;;;;5100417;28;20211;-65
2021/04/03 12:37:59;;;;;;;7.28;3.53;;;;;;;;;;5093484;28;20185;-65
2021/04/03 12:40:25;;;;;;;6.07;3.33;;;;;;;;;;5085308;28;20185;-65
2021/04/03 12:42:51;;;;;;;6.20;3.10;;;;;;;;;;5092991;28;20253;-67
2021/04/03 12:45:17;;;;;;;5.57;2.80;;;;;;;;;;5078279;28;20653;-64
2021/04/03 12:47:43;;;;;;;4.22;1.92;;;;;;;;;;5074910;28;20658;-66
2021/04/03 12:50:10;;;;;;;3.72;2.25;;;;;;;;;;5074862;28;20577;-66
2021/04/03 12:52:36;;;;;;;6.47;2.92;;;;;;;;;;5076169;28;20244;-69
2021/04/03 12:55:03;;;;;;;6.45;3.20;;;;;;;;;;5074453;28;20205;-71
2021/04/03 12:57:29;;;;;;;6.88;3.10;;;;;;;;;;5038904;28;20210;-70
2021/04/03 12:59:55;;;;;;;6.85;6.22;;;;;;;;;;5074445;28;20187;-69
2021/04/03 13:02:21;;;;;;;6.07;3.85;;;;;;;;;;5078374;28;20190;-70
2021/04/03 13:04:47;;;;;;;6.28;4.38;;;;;;;;;;5067277;28;20228;-69
2021/04/03 13:07:13;;;;;;;8.80;6.03;;;;;;;;;;5073849;28;20513;-70
2021/04/03 13:09:40;;;;;;;7.40;3.55;;;;;;;;;;5077587;28;20190;-69
2021/04/03 13:12:06;;;;;;;5.60;3.10;;;;;;;;;;5078744;28;20183;-69
2021/04/03 13:14:32;;;;;;;6.93;3.85;;;;;;;;;;5070734;28;20190;-69
2021/04/03 13:16:58;;;;;;;7.15;6.07;;;;;;;;;;5062818;28;21864;-70
2021/04/03 13:19:24;;;;;;;3.17;2.85;;;;;;;;;;5072145;28;20979;-70
2021/04/03 13:21:50;;;;;;;3.25;2.40;;;;;;;;;;5076718;28;20174;-70
2021/04/03 13:24:16;;;;;;;4.13;2.50;;;;;;;;;;5069337;28;20598;-71
2021/04/03 13:26:42;;;;;;;5.13;2.65;;;;;;;;;;5073085;28;20644;-70
2021/04/03 13:29:08;;;;;;;6.07;2.22;;;;;;;;;;5081666;28;20183;-69
2021/04/03 13:31:34;;;;;;;3.42;2.45;;;;;;;;;;5078906;28;20711;-70
2021/04/03 13:34:00;;;;;;;5.47;2.50;;;;;;;;;;5077504;28;20186;-70
2021/04/03 13:36:27;;;;;;;5.15;2.88;;;;;;;;;;5077404;28;20884;-70
2021/04/03 13:38:53;;;;;;;5.10;2.80;;;;;;;;;;5075778;28;20434;-69
2021/04/03 13:41:19;;;;;;;6.57;2.55;;;;;;;;;;5071568;28;20209;-71
2021/04/03 13:43:45;;;;;;;8.80;2.80;;;;;;;;;;5081677;28;20183;-70
2021/04/03 13:46:11;;;;;;;7.03;2.72;;;;;;;;;;5074386;28;20720;-68
2021/04/03 13:48:37;;;;;;;5.72;2.65;;;;;;;;;;5081340;28;20867;-68
2021/04/03 13:51:04;;;;;;;3.88;2.65;;;;;;;;;;5090160;28;20213;-72
2021/04/03 13:53:30;;;;;;;4.30;2.40;;;;;;;;;;5087024;28;20181;-69
2021/04/03 13:55:56;;;;;;;8.38;2.88;;;;;;;;;;5083113;28;20199;-71
2021/04/03 13:58:22;;;;;;;4.25;2.50;;;;;;;;;;5092482;28;20257;-70
2021/04/03 14:00:49;;;;;;;4.22;2.45;;;;;;;;;;5092449;28;20178;-71
2021/04/03 14:03:15;;;;;;;4.82;4.18;;;;;;;;;;5093643;28;20793;-70
2021/04/03 14:05:44;;;;;;;3.60;3.30;;;;;;;;;;5087815;28;20205;-70
2021/04/03 14:08:11;;;;;;;4.10;2.53;;;;;;;;;;5093803;28;20739;-69
2021/04/03 14:10:37;;;;;;;4.93;2.60;;;;;;;;;;5088510;28;20177;-71
2021/04/03 14:13:03;;;;;;;7.22;2.60;;;;;;;;;;5099414;28;20648;-70
2021/04/03 14:15:29;;;;;;;5.60;2.72;;;;;;;;;;5092276;28;20214;-70
2021/04/03 14:17:55;;;;;;;5.95;2.60;;;;;;;;;;5095359;28;20208;-71
2021/04/03 14:20:22;;;;;;;3.53;2.50;;;;;;;;;;5090298;28;20184;-70
2021/04/03 14:22:49;;;;;;;5.38;2.70;;;;;;;;;;5092994;28;20177;-71
2021/04/03 14:25:15;;;;;;;5.47;2.67;;;;;;;;;;5103229;28;20215;-70
2021/04/03 14:27:41;;;;;;;4.93;2.50;;;;;;;;;;5104191;28;20209;-70
2021/04/03 14:30:07;;;;;;;5.07;2.40;;;;;;;;;;5089018;28;20182;-68
2021/04/03 14:32:33;;;;;;;3.97;2.30;;;;;;;;;;5105137;28;20189;-69
2021/04/03 14:34:59;;;;;;;9.65;2.65;;;;;;;;;;5103512;28;20202;-71
2021/04/03 14:37:25;;;;;;;9.70;2.25;;;;;;;;;;5097764;28;20209;-69
2021/04/03 14:39:51;;;;;;;6.20;2.55;;;;;;;;;;5091967;28;20262;-70